sensor_id;sensor_type;location;lat;lon;timestamp;temperature;humidity
69932;DHT22;57243;52.064;5.116;2022-08-07T00:01:10;23.80;54.00
69932;DHT22;57243;52.064;5.116;2022-08-07T00:03:36;23.80;53.70
69932;DHT22;57243;52.064;5.116;2022-08-07T00:06:02;23.80;53.90
69932;DHT22;57243;52.064;5.116;2022-08-07T00:08:27;23.80;53.90
69932;DHT22;57243;52.064;5.116;2022-08-07T00:10:53;23.80;54.10
69932;DHT22;57243;52.064;5.116;2022-08-07T00:13:20;23.80;54.00
69932;DHT22;57243;52.064;5.116;2022-08-07T00:15:46;23.80;54.00
69932;DHT22;57243;52.064;5.116;2022-08-07T00:18:20;23.80;53.80
69932;DHT22;57243;52.064;5.116;2022-08-07T00:20:47;23.80;54.10
69932;DHT22;57243;52.064;5.116;2022-08-07T00:23:16;23.80;53.90
69932;DHT22;57243;52.064;5.116;2022-08-07T00:25:42;23.80;54.10
69932;DHT22;57243;52.064;5.116;2022-08-07T00:28:07;23.80;54.10
69932;DHT22;57243;52.064;5.116;2022-08-07T00:30:33;23.80;54.00
69932;DHT22;57243;52.064;5.116;2022-08-07T00:32:59;23.80;54.00
69932;DHT22;57243;52.064;5.116;2022-08-07T00:35:26;23.80;54.50
69932;DHT22;57243;52.064;5.116;2022-08-07T00:37:52;23.80;54.10
69932;DHT22;57243;52.064;5.116;2022-08-07T00:40:18;23.80;54.50
69932;DHT22;57243;52.064;5.116;2022-08-07T00:42:44;23.80;54.50
69932;DHT22;57243;52.064;5.116;2022-08-07T00:45:10;23.80;54.30
69932;DHT22;57243;52.064;5.116;2022-08-07T00:47:35;23.80;54.30
69932;DHT22;57243;52.064;5.116;2022-08-07T00:50:01;23.80;54.20
69932;DHT22;57243;52.064;5.116;2022-08-07T00:52:27;23.90;54.40
69932;DHT22;57243;52.064;5.116;2022-08-07T00:54:52;23.80;54.50
69932;DHT22;57243;52.064;5.116;2022-08-07T00:57:18;23.90;54.10
69932;DHT22;57243;52.064;5.116;2022-08-07T00:59:44;23.80;54.10
69932;DHT22;57243;52.064;5.116;2022-08-07T01:02:10;23.80;54.30
69932;DHT22;57243;52.064;5.116;2022-08-07T01:04:37;23.90;54.10
69932;DHT22;57243;52.064;5.116;2022-08-07T01:07:04;23.90;54.60
69932;DHT22;57243;52.064;5.116;2022-08-07T01:09:31;23.80;55.30
69932;DHT22;57243;52.064;5.116;2022-08-07T01:11:57;23.80;54.80
69932;DHT22;57243;52.064;5.116;2022-08-07T01:14:23;23.90;55.20
69932;DHT22;57243;52.064;5.116;2022-08-07T01:16:50;23.90;56.70
69932;DHT22;57243;52.064;5.116;2022-08-07T01:19:17;23.80;56.80
69932;DHT22;57243;52.064;5.116;2022-08-07T01:21:43;23.80;56.50
69932;DHT22;57243;52.064;5.116;2022-08-07T01:24:10;23.80;56.40
69932;DHT22;57243;52.064;5.116;2022-08-07T01:26:36;23.80;56.10
69932;DHT22;57243;52.064;5.116;2022-08-07T01:29:03;23.80;56.40
69932;DHT22;57243;52.064;5.116;2022-08-07T01:31:29;23.80;55.50
69932;DHT22;57243;52.064;5.116;2022-08-07T01:33:58;23.80;55.90
69932;DHT22;57243;52.064;5.116;2022-08-07T01:36:25;23.80;55.10
69932;DHT22;57243;52.064;5.116;2022-08-07T01:38:51;23.80;55.70
69932;DHT22;57243;52.064;5.116;2022-08-07T01:41:18;23.80;55.40
69932;DHT22;57243;52.064;5.116;2022-08-07T01:43:45;23.80;55.30
69932;DHT22;57243;52.064;5.116;2022-08-07T01:46:12;23.80;55.50
69932;DHT22;57243;52.064;5.116;2022-08-07T01:48:43;23.80;54.90
69932;DHT22;57243;52.064;5.116;2022-08-07T01:51:18;23.80;55.10
69932;DHT22;57243;52.064;5.116;2022-08-07T01:53:46;23.80;55.00
69932;DHT22;57243;52.064;5.116;2022-08-07T01:56:42;23.80;55.00
69932;DHT22;57243;52.064;5.116;2022-08-07T01:59:16;23.80;55.10
69932;DHT22;57243;52.064;5.116;2022-08-07T02:01:47;23.80;54.90
69932;DHT22;57243;52.064;5.116;2022-08-07T02:04:20;23.80;54.40
69932;DHT22;57243;52.064;5.116;2022-08-07T02:06:48;23.80;54.60
69932;DHT22;57243;52.064;5.116;2022-08-07T02:09:17;23.80;54.60
69932;DHT22;57243;52.064;5.116;2022-08-07T02:11:45;23.80;54.80
69932;DHT22;57243;52.064;5.116;2022-08-07T02:14:13;23.80;54.60
69932;DHT22;57243;52.064;5.116;2022-08-07T02:16:41;23.80;54.80
69932;DHT22;57243;52.064;5.116;2022-08-07T02:19:10;23.80;54.60
69932;DHT22;57243;52.064;5.116;2022-08-07T02:21:38;23.80;54.80
69932;DHT22;57243;52.064;5.116;2022-08-07T02:24:05;23.80;54.50
69932;DHT22;57243;52.064;5.116;2022-08-07T02:26:32;23.80;54.60
69932;DHT22;57243;52.064;5.116;2022-08-07T02:28:59;23.80;55.10
69932;DHT22;57243;52.064;5.116;2022-08-07T02:31:26;23.80;54.90
69932;DHT22;57243;52.064;5.116;2022-08-07T02:33:53;23.80;54.90
69932;DHT22;57243;52.064;5.116;2022-08-07T02:36:22;23.80;54.80
69932;DHT22;57243;52.064;5.116;2022-08-07T02:38:48;23.80;54.90
69932;DHT22;57243;52.064;5.116;2022-08-07T02:41:15;23.80;54.70
69932;DHT22;57243;52.064;5.116;2022-08-07T02:43:41;23.80;54.80
69932;DHT22;57243;52.064;5.116;2022-08-07T02:46:08;23.70;54.80
69932;DHT22;57243;52.064;5.116;2022-08-07T02:48:35;23.80;54.80
69932;DHT22;57243;52.064;5.116;2022-08-07T02:51:08;23.80;54.70
69932;DHT22;57243;52.064;5.116;2022-08-07T02:53:37;23.80;54.50
69932;DHT22;57243;52.064;5.116;2022-08-07T02:56:03;23.80;54.70
69932;DHT22;57243;52.064;5.116;2022-08-07T02:58:30;23.80;54.70
69932;DHT22;57243;52.064;5.116;2022-08-07T03:00:57;23.80;54.50
69932;DHT22;57243;52.064;5.116;2022-08-07T03:03:26;23.80;54.50
69932;DHT22;57243;52.064;5.116;2022-08-07T03:05:56;23.80;54.30
69932;DHT22;57243;52.064;5.116;2022-08-07T03:08:23;23.80;54.30
69932;DHT22;57243;52.064;5.116;2022-08-07T03:10:49;23.80;54.30
69932;DHT22;57243;52.064;5.116;2022-08-07T03:13:16;23.80;54.40
69932;DHT22;57243;52.064;5.116;2022-08-07T03:15:42;23.80;54.50
69932;DHT22;57243;52.064;5.116;2022-08-07T03:18:08;23.80;54.50
69932;DHT22;57243;52.064;5.116;2022-08-07T03:20:34;23.80;54.40
69932;DHT22;57243;52.064;5.116;2022-08-07T03:23:01;23.70;54.30
69932;DHT22;57243;52.064;5.116;2022-08-07T03:25:28;23.80;54.50
69932;DHT22;57243;52.064;5.116;2022-08-07T03:27:58;23.70;54.60
69932;DHT22;57243;52.064;5.116;2022-08-07T03:30:25;23.70;54.50
69932;DHT22;57243;52.064;5.116;2022-08-07T03:32:51;23.80;54.70
69932;DHT22;57243;52.064;5.116;2022-08-07T03:35:25;23.70;54.40
69932;DHT22;57243;52.064;5.116;2022-08-07T03:37:55;23.80;54.20
69932;DHT22;57243;52.064;5.116;2022-08-07T03:40:22;23.80;54.10
69932;DHT22;57243;52.064;5.116;2022-08-07T03:42:52;23.70;54.10
69932;DHT22;57243;52.064;5.116;2022-08-07T03:45:21;23.70;54.10
69932;DHT22;57243;52.064;5.116;2022-08-07T03:47:47;23.80;54.10
69932;DHT22;57243;52.064;5.116;2022-08-07T03:50:14;23.80;54.10
69932;DHT22;57243;52.064;5.116;2022-08-07T03:52:42;23.70;54.10
69932;DHT22;57243;52.064;5.116;2022-08-07T03:55:09;23.70;54.00
69932;DHT22;57243;52.064;5.116;2022-08-07T03:57:35;23.70;53.90
69932;DHT22;57243;52.064;5.116;2022-08-07T04:00:01;23.70;53.90
69932;DHT22;57243;52.064;5.116;2022-08-07T04:02:28;23.70;53.90
69932;DHT22;57243;52.064;5.116;2022-08-07T04:04:53;23.70;53.90
69932;DHT22;57243;52.064;5.116;2022-08-07T04:07:19;23.80;53.90
69932;DHT22;57243;52.064;5.116;2022-08-07T04:09:46;23.70;53.90
69932;DHT22;57243;52.064;5.116;2022-08-07T04:12:13;23.70;53.80
69932;DHT22;57243;52.064;5.116;2022-08-07T04:14:39;23.70;53.90
69932;DHT22;57243;52.064;5.116;2022-08-07T04:17:05;23.70;53.70
69932;DHT22;57243;52.064;5.116;2022-08-07T04:19:31;23.70;53.70
69932;DHT22;57243;52.064;5.116;2022-08-07T04:21:57;23.70;53.70
69932;DHT22;57243;52.064;5.116;2022-08-07T04:24:24;23.70;53.90
69932;DHT22;57243;52.064;5.116;2022-08-07T04:26:50;23.70;54.20
69932;DHT22;57243;52.064;5.116;2022-08-07T04:29:16;23.70;54.10
69932;DHT22;57243;52.064;5.116;2022-08-07T04:31:42;23.70;54.20
69932;DHT22;57243;52.064;5.116;2022-08-07T04:34:07;23.70;54.10
69932;DHT22;57243;52.064;5.116;2022-08-07T04:36:34;23.70;53.90
69932;DHT22;57243;52.064;5.116;2022-08-07T04:39:01;23.70;53.80
69932;DHT22;57243;52.064;5.116;2022-08-07T04:41:26;23.70;54.00
69932;DHT22;57243;52.064;5.116;2022-08-07T04:43:53;23.70;54.20
69932;DHT22;57243;52.064;5.116;2022-08-07T04:49:22;23.70;54.00
69932;DHT22;57243;52.064;5.116;2022-08-07T04:52:08;23.70;53.90
69932;DHT22;57243;52.064;5.116;2022-08-07T04:57:25;23.70;54.00
69932;DHT22;57243;52.064;5.116;2022-08-07T05:00:00;23.70;54.00
69932;DHT22;57243;52.064;5.116;2022-08-07T05:02:32;23.70;54.00
69932;DHT22;57243;52.064;5.116;2022-08-07T05:05:21;23.70;54.20
69932;DHT22;57243;52.064;5.116;2022-08-07T05:08:07;23.70;54.30
69932;DHT22;57243;52.064;5.116;2022-08-07T05:10:40;23.70;54.10
69932;DHT22;57243;52.064;5.116;2022-08-07T05:13:29;23.70;54.20
69932;DHT22;57243;52.064;5.116;2022-08-07T05:16:03;23.70;54.30
69932;DHT22;57243;52.064;5.116;2022-08-07T05:18:33;23.70;54.20
69932;DHT22;57243;52.064;5.116;2022-08-07T05:21:02;23.70;54.90
69932;DHT22;57243;52.064;5.116;2022-08-07T05:23:44;23.70;54.60
69932;DHT22;57243;52.064;5.116;2022-08-07T05:26:15;23.70;54.20
69932;DHT22;57243;52.064;5.116;2022-08-07T05:28:42;23.70;54.10
69932;DHT22;57243;52.064;5.116;2022-08-07T05:31:10;23.70;54.30
69932;DHT22;57243;52.064;5.116;2022-08-07T05:33:37;23.70;54.40
69932;DHT22;57243;52.064;5.116;2022-08-07T05:36:06;23.70;55.20
69932;DHT22;57243;52.064;5.116;2022-08-07T05:38:33;23.70;55.30
69932;DHT22;57243;52.064;5.116;2022-08-07T05:41:00;23.70;55.30
69932;DHT22;57243;52.064;5.116;2022-08-07T05:43:26;23.60;55.40
69932;DHT22;57243;52.064;5.116;2022-08-07T05:45:52;23.70;54.60
69932;DHT22;57243;52.064;5.116;2022-08-07T05:48:19;23.70;54.30
69932;DHT22;57243;52.064;5.116;2022-08-07T05:50:45;23.70;54.50
69932;DHT22;57243;52.064;5.116;2022-08-07T05:53:11;23.70;54.10
69932;DHT22;57243;52.064;5.116;2022-08-07T05:55:37;23.70;54.00
69932;DHT22;57243;52.064;5.116;2022-08-07T05:58:04;23.70;55.40
69932;DHT22;57243;52.064;5.116;2022-08-07T06:00:33;23.70;54.90
69932;DHT22;57243;52.064;5.116;2022-08-07T06:03:00;23.70;52.90
69932;DHT22;57243;52.064;5.116;2022-08-07T06:05:28;23.70;53.40
69932;DHT22;57243;52.064;5.116;2022-08-07T06:07:59;23.70;53.80
69932;DHT22;57243;52.064;5.116;2022-08-07T06:10:26;23.70;52.60
69932;DHT22;57243;52.064;5.116;2022-08-07T06:12:52;23.70;53.80
69932;DHT22;57243;52.064;5.116;2022-08-07T06:15:19;23.70;53.30
69932;DHT22;57243;52.064;5.116;2022-08-07T06:17:45;23.70;53.00
69932;DHT22;57243;52.064;5.116;2022-08-07T06:20:11;23.70;52.50
69932;DHT22;57243;52.064;5.116;2022-08-07T06:22:39;23.70;53.10
69932;DHT22;57243;52.064;5.116;2022-08-07T06:25:06;23.70;53.70
69932;DHT22;57243;52.064;5.116;2022-08-07T06:27:32;23.70;53.10
69932;DHT22;57243;52.064;5.116;2022-08-07T06:29:59;23.70;54.30
69932;DHT22;57243;52.064;5.116;2022-08-07T06:32:25;23.70;52.80
69932;DHT22;57243;52.064;5.116;2022-08-07T06:34:50;23.70;52.60
69932;DHT22;57243;52.064;5.116;2022-08-07T06:37:16;23.70;53.60
69932;DHT22;57243;52.064;5.116;2022-08-07T06:39:41;23.70;52.60
69932;DHT22;57243;52.064;5.116;2022-08-07T06:42:17;23.70;52.30
69932;DHT22;57243;52.064;5.116;2022-08-07T06:44:45;23.70;51.90
69932;DHT22;57243;52.064;5.116;2022-08-07T06:47:12;23.70;52.90
69932;DHT22;57243;52.064;5.116;2022-08-07T06:49:38;23.70;51.90
69932;DHT22;57243;52.064;5.116;2022-08-07T06:52:07;23.70;52.10
69932;DHT22;57243;52.064;5.116;2022-08-07T06:54:33;23.70;51.70
69932;DHT22;57243;52.064;5.116;2022-08-07T06:56:59;23.70;51.70
69932;DHT22;57243;52.064;5.116;2022-08-07T06:59:26;23.70;51.50
69932;DHT22;57243;52.064;5.116;2022-08-07T07:01:54;23.70;51.80
69932;DHT22;57243;52.064;5.116;2022-08-07T07:04:22;23.70;52.30
69932;DHT22;57243;52.064;5.116;2022-08-07T07:06:47;23.70;51.60
69932;DHT22;57243;52.064;5.116;2022-08-07T07:09:26;23.70;51.60
69932;DHT22;57243;52.064;5.116;2022-08-07T07:14:55;23.70;51.20
69932;DHT22;57243;52.064;5.116;2022-08-07T07:20:10;23.70;51.50
69932;DHT22;57243;52.064;5.116;2022-08-07T07:22:38;23.70;51.70
69932;DHT22;57243;52.064;5.116;2022-08-07T07:25:05;23.70;51.90
69932;DHT22;57243;52.064;5.116;2022-08-07T07:27:35;23.70;51.00
69932;DHT22;57243;52.064;5.116;2022-08-07T07:30:05;23.70;51.30
69932;DHT22;57243;52.064;5.116;2022-08-07T07:32:33;23.70;50.80
69932;DHT22;57243;52.064;5.116;2022-08-07T07:35:03;23.70;50.70
69932;DHT22;57243;52.064;5.116;2022-08-07T07:37:30;23.70;50.90
69932;DHT22;57243;52.064;5.116;2022-08-07T07:40:00;23.70;50.80
69932;DHT22;57243;52.064;5.116;2022-08-07T07:42:26;23.70;50.60
69932;DHT22;57243;52.064;5.116;2022-08-07T07:44:53;23.70;50.60
69932;DHT22;57243;52.064;5.116;2022-08-07T07:47:22;23.70;51.10
69932;DHT22;57243;52.064;5.116;2022-08-07T07:49:48;23.70;50.70
69932;DHT22;57243;52.064;5.116;2022-08-07T07:52:16;23.70;51.70
69932;DHT22;57243;52.064;5.116;2022-08-07T07:54:43;23.70;50.60
69932;DHT22;57243;52.064;5.116;2022-08-07T07:57:10;23.70;50.70
69932;DHT22;57243;52.064;5.116;2022-08-07T07:59:37;23.70;50.70
69932;DHT22;57243;52.064;5.116;2022-08-07T08:02:05;23.70;50.60
69932;DHT22;57243;52.064;5.116;2022-08-07T08:04:32;23.70;51.10
69932;DHT22;57243;52.064;5.116;2022-08-07T08:06:59;23.80;50.90
69932;DHT22;57243;52.064;5.116;2022-08-07T08:09:26;23.80;51.30
69932;DHT22;57243;52.064;5.116;2022-08-07T08:11:53;23.80;50.30
69932;DHT22;57243;52.064;5.116;2022-08-07T08:14:20;23.70;49.70
69932;DHT22;57243;52.064;5.116;2022-08-07T08:16:46;23.70;49.50
69932;DHT22;57243;52.064;5.116;2022-08-07T08:19:14;23.60;49.10
69932;DHT22;57243;52.064;5.116;2022-08-07T08:21:44;23.60;49.00
69932;DHT22;57243;52.064;5.116;2022-08-07T08:24:33;23.60;49.00
69932;DHT22;57243;52.064;5.116;2022-08-07T08:27:21;23.60;48.80
69932;DHT22;57243;52.064;5.116;2022-08-07T08:29:56;23.60;48.80
69932;DHT22;57243;52.064;5.116;2022-08-07T08:32:28;23.60;48.60
69932;DHT22;57243;52.064;5.116;2022-08-07T08:34:56;23.60;48.30
69932;DHT22;57243;52.064;5.116;2022-08-07T08:37:25;23.60;48.20
69932;DHT22;57243;52.064;5.116;2022-08-07T08:39:51;23.60;48.30
69932;DHT22;57243;52.064;5.116;2022-08-07T08:42:25;23.60;48.20
69932;DHT22;57243;52.064;5.116;2022-08-07T08:45:09;23.60;47.70
69932;DHT22;57243;52.064;5.116;2022-08-07T08:47:51;23.60;47.00
69932;DHT22;57243;52.064;5.116;2022-08-07T08:50:31;23.50;46.70
69932;DHT22;57243;52.064;5.116;2022-08-07T08:53:13;23.50;46.60
69932;DHT22;57243;52.064;5.116;2022-08-07T08:55:57;23.50;46.50
69932;DHT22;57243;52.064;5.116;2022-08-07T08:58:41;23.50;45.50
69932;DHT22;57243;52.064;5.116;2022-08-07T09:01:35;23.50;45.80
69932;DHT22;57243;52.064;5.116;2022-08-07T09:06:54;23.50;45.50
69932;DHT22;57243;52.064;5.116;2022-08-07T09:09:28;23.50;46.00
69932;DHT22;57243;52.064;5.116;2022-08-07T09:14:58;23.50;45.70
69932;DHT22;57243;52.064;5.116;2022-08-07T09:28:26;23.60;45.20
69932;DHT22;57243;52.064;5.116;2022-08-07T09:44:46;23.60;46.40
69932;DHT22;57243;52.064;5.116;2022-08-07T09:55:20;23.70;45.00
69932;DHT22;57243;52.064;5.116;2022-08-07T10:00:50;23.70;44.30
69932;DHT22;57243;52.064;5.116;2022-08-07T10:03:40;23.60;44.60
69932;DHT22;57243;52.064;5.116;2022-08-07T10:06:31;23.70;45.10
69932;DHT22;57243;52.064;5.116;2022-08-07T10:09:06;23.70;45.20
69932;DHT22;57243;52.064;5.116;2022-08-07T10:11:54;23.70;45.10
69932;DHT22;57243;52.064;5.116;2022-08-07T10:17:48;23.70;45.90
69932;DHT22;57243;52.064;5.116;2022-08-07T10:20:27;23.80;46.20
69932;DHT22;57243;52.064;5.116;2022-08-07T10:26:17;23.80;46.30
69932;DHT22;57243;52.064;5.116;2022-08-07T10:36:37;23.90;45.80
69932;DHT22;57243;52.064;5.116;2022-08-07T10:39:19;23.90;46.00
69932;DHT22;57243;52.064;5.116;2022-08-07T10:51:20;23.90;45.90
69932;DHT22;57243;52.064;5.116;2022-08-07T10:56:57;23.90;46.20
69932;DHT22;57243;52.064;5.116;2022-08-07T10:59:58;23.90;46.00
69932;DHT22;57243;52.064;5.116;2022-08-07T11:02:57;23.90;46.10
69932;DHT22;57243;52.064;5.116;2022-08-07T11:05:41;23.90;46.40
69932;DHT22;57243;52.064;5.116;2022-08-07T11:11:09;23.90;46.30
69932;DHT22;57243;52.064;5.116;2022-08-07T11:13:46;23.90;45.90
69932;DHT22;57243;52.064;5.116;2022-08-07T11:16:21;23.90;45.70
69932;DHT22;57243;52.064;5.116;2022-08-07T11:19:06;23.90;46.00
69932;DHT22;57243;52.064;5.116;2022-08-07T11:24:55;23.90;45.70
69932;DHT22;57243;52.064;5.116;2022-08-07T11:27:29;24.00;45.70
69932;DHT22;57243;52.064;5.116;2022-08-07T11:30:04;24.00;45.00
69932;DHT22;57243;52.064;5.116;2022-08-07T11:32:44;24.00;45.10
69932;DHT22;57243;52.064;5.116;2022-08-07T11:35:32;24.00;45.40
69932;DHT22;57243;52.064;5.116;2022-08-07T11:38:23;24.10;45.10
69932;DHT22;57243;52.064;5.116;2022-08-07T11:40:57;24.10;44.40
69932;DHT22;57243;52.064;5.116;2022-08-07T11:43:27;24.10;44.50
69932;DHT22;57243;52.064;5.116;2022-08-07T11:49:01;24.10;44.90
69932;DHT22;57243;52.064;5.116;2022-08-07T12:05:41;24.10;43.90
69932;DHT22;57243;52.064;5.116;2022-08-07T12:08:15;24.10;43.10
69932;DHT22;57243;52.064;5.116;2022-08-07T12:10:47;24.10;43.20
69932;DHT22;57243;52.064;5.116;2022-08-07T12:13:40;24.10;42.80
69932;DHT22;57243;52.064;5.116;2022-08-07T12:16:21;24.10;43.20
69932;DHT22;57243;52.064;5.116;2022-08-07T12:19:18;24.10;43.50
69932;DHT22;57243;52.064;5.116;2022-08-07T12:27:45;24.10;42.70
69932;DHT22;57243;52.064;5.116;2022-08-07T12:30:12;24.10;42.80
69932;DHT22;57243;52.064;5.116;2022-08-07T12:33:21;24.10;43.60
69932;DHT22;57243;52.064;5.116;2022-08-07T12:35:30;24.10;43.10
69932;DHT22;57243;52.064;5.116;2022-08-07T12:37:58;24.10;43.90
69932;DHT22;57243;52.064;5.116;2022-08-07T12:40:27;24.20;43.80
69932;DHT22;57243;52.064;5.116;2022-08-07T12:42:57;24.20;42.40
69932;DHT22;57243;52.064;5.116;2022-08-07T12:45:34;24.10;41.90
69932;DHT22;57243;52.064;5.116;2022-08-07T12:50:44;24.10;42.70
69932;DHT22;57243;52.064;5.116;2022-08-07T12:56:09;24.10;41.60
69932;DHT22;57243;52.064;5.116;2022-08-07T12:58:42;24.10;41.40
69932;DHT22;57243;52.064;5.116;2022-08-07T13:13:12;24.10;40.70
69932;DHT22;57243;52.064;5.116;2022-08-07T13:16:01;24.10;40.70
69932;DHT22;57243;52.064;5.116;2022-08-07T13:18:49;24.10;41.20
69932;DHT22;57243;52.064;5.116;2022-08-07T13:21:23;24.10;41.60
69932;DHT22;57243;52.064;5.116;2022-08-07T13:24:06;24.20;41.90
69932;DHT22;57243;52.064;5.116;2022-08-07T13:26:41;24.20;42.30
69932;DHT22;57243;52.064;5.116;2022-08-07T13:29:25;24.20;42.00
69932;DHT22;57243;52.064;5.116;2022-08-07T13:31:58;24.20;43.00
69932;DHT22;57243;52.064;5.116;2022-08-07T13:34:55;24.20;43.10
69932;DHT22;57243;52.064;5.116;2022-08-07T13:42:34;24.30;43.00
69932;DHT22;57243;52.064;5.116;2022-08-07T13:45:04;24.30;43.00
69932;DHT22;57243;52.064;5.116;2022-08-07T13:47:34;24.30;43.20
69932;DHT22;57243;52.064;5.116;2022-08-07T13:50:02;24.30;42.80
69932;DHT22;57243;52.064;5.116;2022-08-07T13:52:32;24.30;43.10
69932;DHT22;57243;52.064;5.116;2022-08-07T13:55:09;24.30;42.70
69932;DHT22;57243;52.064;5.116;2022-08-07T13:57:38;24.30;43.30
69932;DHT22;57243;52.064;5.116;2022-08-07T14:00:08;24.30;43.20
69932;DHT22;57243;52.064;5.116;2022-08-07T14:02:35;24.30;43.00
69932;DHT22;57243;52.064;5.116;2022-08-07T14:05:07;24.30;42.80
69932;DHT22;57243;52.064;5.116;2022-08-07T14:07:44;24.30;43.00
69932;DHT22;57243;52.064;5.116;2022-08-07T14:10:11;24.20;42.90
69932;DHT22;57243;52.064;5.116;2022-08-07T14:12:43;24.20;43.00
69932;DHT22;57243;52.064;5.116;2022-08-07T14:17:57;24.20;43.30
69932;DHT22;57243;52.064;5.116;2022-08-07T14:20:28;24.20;43.20
69932;DHT22;57243;52.064;5.116;2022-08-07T14:23:14;24.20;43.50
69932;DHT22;57243;52.064;5.116;2022-08-07T14:25:41;24.20;43.50
69932;DHT22;57243;52.064;5.116;2022-08-07T14:28:10;24.20;43.50
69932;DHT22;57243;52.064;5.116;2022-08-07T14:30:45;24.30;43.90
69932;DHT22;57243;52.064;5.116;2022-08-07T14:33:11;24.30;44.10
69932;DHT22;57243;52.064;5.116;2022-08-07T14:35:39;24.30;44.40
69932;DHT22;57243;52.064;5.116;2022-08-07T14:38:07;24.30;44.50
69932;DHT22;57243;52.064;5.116;2022-08-07T14:40:34;24.30;44.90
69932;DHT22;57243;52.064;5.116;2022-08-07T14:43:11;24.30;44.80
69932;DHT22;57243;52.064;5.116;2022-08-07T14:45:46;24.30;44.90
69932;DHT22;57243;52.064;5.116;2022-08-07T14:48:14;24.30;45.20
69932;DHT22;57243;52.064;5.116;2022-08-07T14:50:44;24.30;45.20
69932;DHT22;57243;52.064;5.116;2022-08-07T14:53:12;24.30;45.40
69932;DHT22;57243;52.064;5.116;2022-08-07T14:55:39;24.30;45.50
69932;DHT22;57243;52.064;5.116;2022-08-07T14:58:07;24.30;45.60
69932;DHT22;57243;52.064;5.116;2022-08-07T15:00:34;24.20;45.50
69932;DHT22;57243;52.064;5.116;2022-08-07T15:03:05;24.20;45.50
69932;DHT22;57243;52.064;5.116;2022-08-07T15:05:32;24.20;45.50
69932;DHT22;57243;52.064;5.116;2022-08-07T15:07:58;24.20;45.50
69932;DHT22;57243;52.064;5.116;2022-08-07T15:10:28;24.20;45.50
69932;DHT22;57243;52.064;5.116;2022-08-07T15:12:59;24.20;45.30
69932;DHT22;57243;52.064;5.116;2022-08-07T15:15:36;24.20;45.40
69932;DHT22;57243;52.064;5.116;2022-08-07T15:18:07;24.20;45.50
69932;DHT22;57243;52.064;5.116;2022-08-07T15:20:36;24.20;45.40
69932;DHT22;57243;52.064;5.116;2022-08-07T15:23:07;24.20;45.20
69932;DHT22;57243;52.064;5.116;2022-08-07T15:25:37;24.20;45.20
69932;DHT22;57243;52.064;5.116;2022-08-07T15:28:07;24.30;45.30
69932;DHT22;57243;52.064;5.116;2022-08-07T15:30:34;24.30;45.30
69932;DHT22;57243;52.064;5.116;2022-08-07T15:33:03;24.30;45.30
69932;DHT22;57243;52.064;5.116;2022-08-07T15:35:32;24.20;45.30
69932;DHT22;57243;52.064;5.116;2022-08-07T15:38:00;24.20;45.50
69932;DHT22;57243;52.064;5.116;2022-08-07T15:40:31;24.20;45.50
69932;DHT22;57243;52.064;5.116;2022-08-07T15:45:39;24.20;45.80
69932;DHT22;57243;52.064;5.116;2022-08-07T15:50:40;24.20;45.60
69932;DHT22;57243;52.064;5.116;2022-08-07T15:53:33;24.30;45.60
69932;DHT22;57243;52.064;5.116;2022-08-07T15:56:02;24.30;45.60
69932;DHT22;57243;52.064;5.116;2022-08-07T15:58:37;24.20;45.40
69932;DHT22;57243;52.064;5.116;2022-08-07T16:01:21;24.20;45.70
69932;DHT22;57243;52.064;5.116;2022-08-07T16:03:51;24.30;45.90
69932;DHT22;57243;52.064;5.116;2022-08-07T16:06:34;24.30;46.10
69932;DHT22;57243;52.064;5.116;2022-08-07T16:09:04;24.30;46.10
69932;DHT22;57243;52.064;5.116;2022-08-07T16:14:58;24.30;46.10
69932;DHT22;57243;52.064;5.116;2022-08-07T16:30:51;24.20;46.00
69932;DHT22;57243;52.064;5.116;2022-08-07T16:33:23;24.20;46.00
69932;DHT22;57243;52.064;5.116;2022-08-07T16:44:58;24.20;46.00
69932;DHT22;57243;52.064;5.116;2022-08-07T16:47:53;24.20;46.00
69932;DHT22;57243;52.064;5.116;2022-08-07T16:51:07;24.20;45.80
69932;DHT22;57243;52.064;5.116;2022-08-07T16:57:22;24.20;45.70
69932;DHT22;57243;52.064;5.116;2022-08-07T17:00:03;24.20;45.80
69932;DHT22;57243;52.064;5.116;2022-08-07T17:07:59;24.20;45.80
69932;DHT22;57243;52.064;5.116;2022-08-07T17:16:24;24.20;45.60
69932;DHT22;57243;52.064;5.116;2022-08-07T17:19:02;24.20;45.40
69932;DHT22;57243;52.064;5.116;2022-08-07T17:21:32;24.20;45.60
69932;DHT22;57243;52.064;5.116;2022-08-07T17:32:30;24.20;45.90
69932;DHT22;57243;52.064;5.116;2022-08-07T17:35:12;24.20;45.80
69932;DHT22;57243;52.064;5.116;2022-08-07T17:41:07;24.20;46.00
69932;DHT22;57243;52.064;5.116;2022-08-07T17:43:38;24.20;46.10
69932;DHT22;57243;52.064;5.116;2022-08-07T17:46:35;24.20;46.00
69932;DHT22;57243;52.064;5.116;2022-08-07T17:49:20;24.20;46.00
69932;DHT22;57243;52.064;5.116;2022-08-07T17:51:55;24.20;46.50
69932;DHT22;57243;52.064;5.116;2022-08-07T17:59:59;24.20;46.70
69932;DHT22;57243;52.064;5.116;2022-08-07T18:02:39;24.20;46.60
69932;DHT22;57243;52.064;5.116;2022-08-07T18:08:23;24.20;47.50
69932;DHT22;57243;52.064;5.116;2022-08-07T18:11:15;24.20;48.30
69932;DHT22;57243;52.064;5.116;2022-08-07T18:14:33;24.20;47.30
69932;DHT22;57243;52.064;5.116;2022-08-07T18:16:35;24.20;47.50
69932;DHT22;57243;52.064;5.116;2022-08-07T18:24:45;24.20;47.80
69932;DHT22;57243;52.064;5.116;2022-08-07T18:30:15;24.20;47.90
69932;DHT22;57243;52.064;5.116;2022-08-07T18:38:31;24.10;47.20
69932;DHT22;57243;52.064;5.116;2022-08-07T18:41:16;24.10;46.80
69932;DHT22;57243;52.064;5.116;2022-08-07T18:47:16;24.10;46.30
69932;DHT22;57243;52.064;5.116;2022-08-07T18:50:16;24.10;46.70
69932;DHT22;57243;52.064;5.116;2022-08-07T18:53:09;24.00;46.80
69932;DHT22;57243;52.064;5.116;2022-08-07T18:55:58;24.00;46.80
69932;DHT22;57243;52.064;5.116;2022-08-07T18:58:50;24.00;46.80
69932;DHT22;57243;52.064;5.116;2022-08-07T19:01:38;24.00;46.80
69932;DHT22;57243;52.064;5.116;2022-08-07T19:06:46;24.00;46.90
69932;DHT22;57243;52.064;5.116;2022-08-07T19:09:47;23.90;46.90
69932;DHT22;57243;52.064;5.116;2022-08-07T19:12:54;23.90;47.00
69932;DHT22;57243;52.064;5.116;2022-08-07T19:15:45;23.90;47.00
69932;DHT22;57243;52.064;5.116;2022-08-07T19:18:42;23.90;47.20
69932;DHT22;57243;52.064;5.116;2022-08-07T19:21:39;23.90;47.30
69932;DHT22;57243;52.064;5.116;2022-08-07T19:24:38;23.90;47.30
69932;DHT22;57243;52.064;5.116;2022-08-07T19:27:13;23.90;47.30
69932;DHT22;57243;52.064;5.116;2022-08-07T19:29:41;23.80;47.30
69932;DHT22;57243;52.064;5.116;2022-08-07T19:32:07;23.90;47.40
69932;DHT22;57243;52.064;5.116;2022-08-07T19:34:36;23.90;47.40
69932;DHT22;57243;52.064;5.116;2022-08-07T19:37:06;23.90;47.60
69932;DHT22;57243;52.064;5.116;2022-08-07T19:39:34;23.80;47.50
69932;DHT22;57243;52.064;5.116;2022-08-07T19:42:07;23.80;47.70